sensor_id;sensor_type;location;lat;lon;timestamp;pressure;altitude;pressure_sealevel;temperature;humidity
49457;BME280;35352;51.480;-0.862;2022-09-09T00:02:19;99750.92;;;19.93;100.00
49457;BME280;35352;51.480;-0.862;2022-09-09T00:04:58;99752.63;;;20.20;100.00
49457;BME280;35352;51.480;-0.862;2022-09-09T00:07:34;99752.60;;;20.48;100.00
49457;BME280;35352;51.480;-0.862;2022-09-09T00:11:15;99749.79;;;20.26;100.00
49457;BME280;35352;51.480;-0.862;2022-09-09T00:13:48;99747.91;;;20.23;100.00
49457;BME280;35352;51.480;-0.862;2022-09-09T00:16:22;99749.53;;;20.25;100.00
49457;BME280;35352;51.480;-0.862;2022-09-09T00:19:00;99749.55;;;20.15;100.00
49457;BME280;35352;51.480;-0.862;2022-09-09T00:21:33;99751.51;;;19.88;100.00
49457;BME280;35352;51.480;-0.862;2022-09-09T00:24:08;99751.23;;;19.91;100.00
49457;BME280;35352;51.480;-0.862;2022-09-09T00:26:43;99752.97;;;20.79;100.00
49457;BME280;35352;51.480;-0.862;2022-09-09T00:29:22;99751.46;;;20.61;100.00
49457;BME280;35352;51.480;-0.862;2022-09-09T00:31:54;99749.54;;;20.30;100.00
49457;BME280;35352;51.480;-0.862;2022-09-09T00:34:26;99748.42;;;20.88;100.00
49457;BME280;35352;51.480;-0.862;2022-09-09T00:36:56;99748.13;;;19.79;100.00
49457;BME280;35352;51.480;-0.862;2022-09-09T00:39:31;99748.32;;;20.16;100.00
49457;BME280;35352;51.480;-0.862;2022-09-09T00:42:13;99749.53;;;19.88;100.00
49457;BME280;35352;51.480;-0.862;2022-09-09T00:44:53;99747.04;;;19.61;100.00
49457;BME280;35352;51.480;-0.862;2022-09-09T00:47:39;99750.40;;;19.90;100.00
49457;BME280;35352;51.480;-0.862;2022-09-09T00:51:16;99751.00;;;19.67;100.00
49457;BME280;35352;51.480;-0.862;2022-09-09T00:54:07;99751.15;;;19.89;100.00
49457;BME280;35352;51.480;-0.862;2022-09-09T00:56:52;99751.62;;;19.16;100.00
49457;BME280;35352;51.480;-0.862;2022-09-09T00:59:32;99751.32;;;19.67;100.00
49457;BME280;35352;51.480;-0.862;2022-09-09T01:02:09;99750.44;;;19.26;100.00
49457;BME280;35352;51.480;-0.862;2022-09-09T01:04:42;99747.41;;;19.28;100.00
49457;BME280;35352;51.480;-0.862;2022-09-09T01:07:15;99748.80;;;19.30;100.00
49457;BME280;35352;51.480;-0.862;2022-09-09T01:09:54;99747.41;;;19.15;100.00
49457;BME280;35352;51.480;-0.862;2022-09-09T01:12:26;99747.36;;;19.48;100.00
49457;BME280;35352;51.480;-0.862;2022-09-09T01:15:01;99751.35;;;18.69;100.00
49457;BME280;35352;51.480;-0.862;2022-09-09T01:17:33;99750.65;;;18.72;100.00
49457;BME280;35352;51.480;-0.862;2022-09-09T01:21:22;99745.05;;;18.77;100.00
49457;BME280;35352;51.480;-0.862;2022-09-09T01:24:18;99742.81;;;18.73;100.00
49457;BME280;35352;51.480;-0.862;2022-09-09T01:26:49;99742.58;;;18.80;100.00
49457;BME280;35352;51.480;-0.862;2022-09-09T01:29:22;99748.62;;;18.15;100.00
49457;BME280;35352;51.480;-0.862;2022-09-09T01:31:55;99749.21;;;18.40;100.00
49457;BME280;35352;51.480;-0.862;2022-09-09T01:34:25;99751.77;;;18.18;100.00
49457;BME280;35352;51.480;-0.862;2022-09-09T01:36:57;99755.16;;;18.19;100.00
49457;BME280;35352;51.480;-0.862;2022-09-09T01:39:27;99757.40;;;17.58;100.00
49457;BME280;35352;51.480;-0.862;2022-09-09T01:41:55;99758.05;;;17.53;100.00
49457;BME280;35352;51.480;-0.862;2022-09-09T01:44:23;99765.66;;;16.44;100.00
49457;BME280;35352;51.480;-0.862;2022-09-09T01:46:50;99766.82;;;16.99;100.00
49457;BME280;35352;51.480;-0.862;2022-09-09T01:49:17;99766.56;;;16.90;100.00
49457;BME280;35352;51.480;-0.862;2022-09-09T01:51:48;99761.96;;;17.56;100.00
49457;BME280;35352;51.480;-0.862;2022-09-09T01:54:16;99765.04;;;17.66;100.00
49457;BME280;35352;51.480;-0.862;2022-09-09T01:56:54;99765.72;;;17.63;100.00
49457;BME280;35352;51.480;-0.862;2022-09-09T01:59:31;99766.59;;;17.79;100.00
49457;BME280;35352;51.480;-0.862;2022-09-09T02:02:10;99767.34;;;18.13;100.00
49457;BME280;35352;51.480;-0.862;2022-09-09T02:04:40;99765.64;;;17.61;100.00
49457;BME280;35352;51.480;-0.862;2022-09-09T02:07:30;99774.56;;;16.92;100.00
49457;BME280;35352;51.480;-0.862;2022-09-09T02:10:05;99769.75;;;17.50;100.00
49457;BME280;35352;51.480;-0.862;2022-09-09T02:12:40;99766.02;;;17.47;100.00
49457;BME280;35352;51.480;-0.862;2022-09-09T02:15:18;99764.86;;;17.41;100.00
49457;BME280;35352;51.480;-0.862;2022-09-09T02:17:50;99770.98;;;16.99;100.00
49457;BME280;35352;51.480;-0.862;2022-09-09T02:21:14;99769.95;;;16.85;100.00
49457;BME280;35352;51.480;-0.862;2022-09-09T02:23:43;99770.32;;;16.63;100.00
49457;BME280;35352;51.480;-0.862;2022-09-09T02:26:13;99773.05;;;16.66;100.00
49457;BME280;35352;51.480;-0.862;2022-09-09T02:28:41;99774.56;;;16.71;100.00
49457;BME280;35352;51.480;-0.862;2022-09-09T02:31:14;99776.07;;;16.42;100.00
49457;BME280;35352;51.480;-0.862;2022-09-09T02:33:47;99777.28;;;16.79;100.00
49457;BME280;35352;51.480;-0.862;2022-09-09T02:36:20;99779.36;;;16.54;100.00
49457;BME280;35352;51.480;-0.862;2022-09-09T02:38:52;99776.94;;;16.93;100.00
49457;BME280;35352;51.480;-0.862;2022-09-09T02:41:21;99776.95;;;17.01;100.00
49457;BME280;35352;51.480;-0.862;2022-09-09T02:43:51;99778.06;;;16.63;100.00
49457;BME280;35352;51.480;-0.862;2022-09-09T02:46:29;99776.83;;;17.17;100.00
49457;BME280;35352;51.480;-0.862;2022-09-09T02:49:03;99781.84;;;16.67;100.00
49457;BME280;35352;51.480;-0.862;2022-09-09T02:51:39;99781.13;;;16.21;100.00
49457;BME280;35352;51.480;-0.862;2022-09-09T02:54:13;99785.69;;;16.29;100.00
49457;BME280;35352;51.480;-0.862;2022-09-09T02:56:49;99783.99;;;16.03;100.00
49457;BME280;35352;51.480;-0.862;2022-09-09T02:59:18;99783.69;;;15.22;100.00
49457;BME280;35352;51.480;-0.862;2022-09-09T03:01:45;99785.52;;;15.78;100.00
49457;BME280;35352;51.480;-0.862;2022-09-09T03:04:13;99789.55;;;15.42;100.00
49457;BME280;35352;51.480;-0.862;2022-09-09T03:06:40;99788.07;;;15.53;100.00
49457;BME280;35352;51.480;-0.862;2022-09-09T03:09:07;99789.72;;;16.14;100.00
49457;BME280;35352;51.480;-0.862;2022-09-09T03:11:34;99792.97;;;15.85;100.00
49457;BME280;35352;51.480;-0.862;2022-09-09T03:14:03;99792.98;;;15.96;100.00
49457;BME280;35352;51.480;-0.862;2022-09-09T03:16:30;99795.85;;;16.13;100.00
49457;BME280;35352;51.480;-0.862;2022-09-09T03:18:58;99793.44;;;15.51;100.00
49457;BME280;35352;51.480;-0.862;2022-09-09T03:21:25;99793.25;;;15.78;100.00
49457;BME280;35352;51.480;-0.862;2022-09-09T03:23:52;99794.58;;;16.36;100.00
49457;BME280;35352;51.480;-0.862;2022-09-09T03:26:19;99796.59;;;15.91;100.00
49457;BME280;35352;51.480;-0.862;2022-09-09T03:28:46;99798.37;;;15.46;100.00
49457;BME280;35352;51.480;-0.862;2022-09-09T03:31:13;99805.24;;;16.59;100.00
49457;BME280;35352;51.480;-0.862;2022-09-09T03:33:40;99805.53;;;15.92;100.00
49457;BME280;35352;51.480;-0.862;2022-09-09T03:36:08;99803.62;;;15.73;100.00
49457;BME280;35352;51.480;-0.862;2022-09-09T03:38:36;99809.94;;;15.62;100.00
49457;BME280;35352;51.480;-0.862;2022-09-09T03:41:13;99813.92;;;15.57;100.00
49457;BME280;35352;51.480;-0.862;2022-09-09T03:43:41;99820.19;;;14.52;100.00
49457;BME280;35352;51.480;-0.862;2022-09-09T03:46:08;99819.73;;;13.70;100.00
49457;BME280;35352;51.480;-0.862;2022-09-09T03:48:36;99814.20;;;15.01;100.00
49457;BME280;35352;51.480;-0.862;2022-09-09T03:51:13;99817.56;;;15.96;100.00
49457;BME280;35352;51.480;-0.862;2022-09-09T03:53:41;99826.36;;;16.34;100.00
49457;BME280;35352;51.480;-0.862;2022-09-09T03:56:09;99829.10;;;15.78;100.00
49457;BME280;35352;51.480;-0.862;2022-09-09T03:58:37;99836.44;;;15.84;100.00
49457;BME280;35352;51.480;-0.862;2022-09-09T04:01:14;99840.45;;;14.84;100.00
49457;BME280;35352;51.480;-0.862;2022-09-09T04:03:41;99840.39;;;15.13;100.00
49457;BME280;35352;51.480;-0.862;2022-09-09T04:06:11;99840.17;;;15.01;100.00
49457;BME280;35352;51.480;-0.862;2022-09-09T04:08:39;99845.69;;;15.17;100.00
49457;BME280;35352;51.480;-0.862;2022-09-09T04:11:13;99848.26;;;14.68;100.00
49457;BME280;35352;51.480;-0.862;2022-09-09T04:13:40;99853.61;;;14.69;100.00
49457;BME280;35352;51.480;-0.862;2022-09-09T04:16:13;99856.35;;;13.72;100.00
49457;BME280;35352;51.480;-0.862;2022-09-09T04:18:40;99858.47;;;14.81;100.00
49457;BME280;35352;51.480;-0.862;2022-09-09T04:21:13;99859.90;;;13.77;100.00
49457;BME280;35352;51.480;-0.862;2022-09-09T04:23:40;99860.77;;;14.37;100.00
49457;BME280;35352;51.480;-0.862;2022-09-09T04:26:08;99865.26;;;14.40;100.00
49457;BME280;35352;51.480;-0.862;2022-09-09T04:28:36;99861.70;;;14.15;100.00
49457;BME280;35352;51.480;-0.862;2022-09-09T04:31:16;99861.04;;;14.69;100.00
49457;BME280;35352;51.480;-0.862;2022-09-09T04:33:43;99864.50;;;14.87;100.00
49457;BME280;35352;51.480;-0.862;2022-09-09T04:36:11;99866.32;;;14.10;100.00
49457;BME280;35352;51.480;-0.862;2022-09-09T04:38:38;99867.35;;;13.95;100.00
49457;BME280;35352;51.480;-0.862;2022-09-09T04:41:15;99870.01;;;13.97;100.00
49457;BME280;35352;51.480;-0.862;2022-09-09T04:43:43;99874.35;;;14.04;100.00
49457;BME280;35352;51.480;-0.862;2022-09-09T04:46:10;99878.96;;;14.45;100.00
49457;BME280;35352;51.480;-0.862;2022-09-09T04:48:37;99879.72;;;14.50;100.00
49457;BME280;35352;51.480;-0.862;2022-09-09T04:51:14;99882.37;;;14.36;100.00
49457;BME280;35352;51.480;-0.862;2022-09-09T04:53:41;99886.32;;;14.44;100.00
49457;BME280;35352;51.480;-0.862;2022-09-09T04:56:10;99884.84;;;14.32;100.00
49457;BME280;35352;51.480;-0.862;2022-09-09T04:58:40;99888.24;;;14.78;100.00
49457;BME280;35352;51.480;-0.862;2022-09-09T05:01:14;99891.79;;;14.35;100.00
49457;BME280;35352;51.480;-0.862;2022-09-09T05:03:42;99892.86;;;15.23;100.00
49457;BME280;35352;51.480;-0.862;2022-09-09T05:06:10;99897.08;;;14.88;100.00
49457;BME280;35352;51.480;-0.862;2022-09-09T05:08:40;99903.19;;;14.45;100.00
49457;BME280;35352;51.480;-0.862;2022-09-09T05:11:16;99902.28;;;14.32;100.00
49457;BME280;35352;51.480;-0.862;2022-09-09T05:13:44;99905.27;;;14.63;100.00
49457;BME280;35352;51.480;-0.862;2022-09-09T05:16:12;99906.98;;;15.22;100.00
49457;BME280;35352;51.480;-0.862;2022-09-09T05:18:40;99906.65;;;14.58;100.00
49457;BME280;35352;51.480;-0.862;2022-09-09T05:21:16;99909.11;;;14.61;100.00
49457;BME280;35352;51.480;-0.862;2022-09-09T05:23:44;99911.78;;;13.82;100.00
49457;BME280;35352;51.480;-0.862;2022-09-09T05:26:14;99911.97;;;14.76;100.00
49457;BME280;35352;51.480;-0.862;2022-09-09T05:28:42;99916.06;;;15.32;100.00
49457;BME280;35352;51.480;-0.862;2022-09-09T05:31:15;99920.27;;;15.03;100.00
49457;BME280;35352;51.480;-0.862;2022-09-09T05:33:44;99920.85;;;14.92;100.00
49457;BME280;35352;51.480;-0.862;2022-09-09T05:36:14;99922.55;;;15.03;100.00
49457;BME280;35352;51.480;-0.862;2022-09-09T05:38:41;99923.54;;;14.55;100.00
49457;BME280;35352;51.480;-0.862;2022-09-09T05:41:14;99929.73;;;13.99;100.00
49457;BME280;35352;51.480;-0.862;2022-09-09T05:43:42;99927.54;;;14.78;100.00
49457;BME280;35352;51.480;-0.862;2022-09-09T05:46:12;99933.39;;;15.40;100.00
49457;BME280;35352;51.480;-0.862;2022-09-09T05:48:41;99932.59;;;15.54;100.00
49457;BME280;35352;51.480;-0.862;2022-09-09T05:51:15;99933.17;;;15.37;100.00
49457;BME280;35352;51.480;-0.862;2022-09-09T05:53:44;99935.04;;;15.24;100.00
49457;BME280;35352;51.480;-0.862;2022-09-09T05:56:15;99937.48;;;15.36;100.00
49457;BME280;35352;51.480;-0.862;2022-09-09T05:58:42;99940.94;;;15.07;100.00
49457;BME280;35352;51.480;-0.862;2022-09-09T06:01:15;99946.16;;;15.04;100.00
49457;BME280;35352;51.480;-0.862;2022-09-09T06:03:44;99954.34;;;14.98;100.00
49457;BME280;35352;51.480;-0.862;2022-09-09T06:06:13;99956.92;;;15.43;100.00
49457;BME280;35352;51.480;-0.862;2022-09-09T06:08:43;99957.99;;;14.51;100.00
49457;BME280;35352;51.480;-0.862;2022-09-09T06:11:15;99957.29;;;14.82;100.00
49457;BME280;35352;51.480;-0.862;2022-09-09T06:13:45;99965.46;;;13.75;100.00
49457;BME280;35352;51.480;-0.862;2022-09-09T06:16:14;99968.08;;;14.33;100.00
49457;BME280;35352;51.480;-0.862;2022-09-09T06:18:43;99974.62;;;13.98;100.00
49457;BME280;35352;51.480;-0.862;2022-09-09T06:21:16;99977.09;;;14.50;100.00
49457;BME280;35352;51.480;-0.862;2022-09-09T06:23:44;99977.78;;;14.02;100.00
49457;BME280;35352;51.480;-0.862;2022-09-09T06:26:14;99975.30;;;14.85;100.00
49457;BME280;35352;51.480;-0.862;2022-09-09T06:28:43;99975.09;;;14.71;100.00
49457;BME280;35352;51.480;-0.862;2022-09-09T06:31:15;99972.79;;;15.20;100.00
49457;BME280;35352;51.480;-0.862;2022-09-09T06:33:43;99974.94;;;14.17;100.00
49457;BME280;35352;51.480;-0.862;2022-09-09T06:36:12;99982.79;;;14.17;100.00
49457;BME280;35352;51.480;-0.862;2022-09-09T06:38:40;99989.38;;;13.57;100.00
49457;BME280;35352;51.480;-0.862;2022-09-09T06:41:14;99991.42;;;14.19;100.00
49457;BME280;35352;51.480;-0.862;2022-09-09T06:43:42;99998.88;;;14.49;100.00
49457;BME280;35352;51.480;-0.862;2022-09-09T06:46:11;100002.88;;;15.44;100.00
49457;BME280;35352;51.480;-0.862;2022-09-09T06:48:39;100000.86;;;14.67;100.00
49457;BME280;35352;51.480;-0.862;2022-09-09T06:51:14;100006.56;;;15.06;100.00
49457;BME280;35352;51.480;-0.862;2022-09-09T06:53:45;100008.24;;;15.37;100.00
49457;BME280;35352;51.480;-0.862;2022-09-09T06:56:20;100011.38;;;15.14;100.00
49457;BME280;35352;51.480;-0.862;2022-09-09T06:58:47;100012.65;;;14.72;100.00
49457;BME280;35352;51.480;-0.862;2022-09-09T07:01:15;100010.98;;;14.69;100.00
49457;BME280;35352;51.480;-0.862;2022-09-09T07:03:46;100013.96;;;15.97;100.00
49457;BME280;35352;51.480;-0.862;2022-09-09T07:06:15;100012.96;;;16.15;100.00
49457;BME280;35352;51.480;-0.862;2022-09-09T07:08:43;100009.54;;;15.26;100.00
49457;BME280;35352;51.480;-0.862;2022-09-09T07:11:13;100012.98;;;15.87;100.00
49457;BME280;35352;51.480;-0.862;2022-09-09T07:13:40;100013.45;;;15.78;100.00
49457;BME280;35352;51.480;-0.862;2022-09-09T07:16:10;100015.18;;;16.32;100.00
49457;BME280;35352;51.480;-0.862;2022-09-09T07:18:37;100012.72;;;16.26;100.00
49457;BME280;35352;51.480;-0.862;2022-09-09T07:21:14;100022.42;;;16.30;100.00
49457;BME280;35352;51.480;-0.862;2022-09-09T07:23:42;100022.54;;;15.67;100.00
49457;BME280;35352;51.480;-0.862;2022-09-09T07:26:09;100022.07;;;16.13;100.00
49457;BME280;35352;51.480;-0.862;2022-09-09T07:28:38;100023.79;;;15.25;100.00
49457;BME280;35352;51.480;-0.862;2022-09-09T07:31:15;100023.22;;;15.73;100.00
49457;BME280;35352;51.480;-0.862;2022-09-09T07:33:44;100025.31;;;16.26;100.00
49457;BME280;35352;51.480;-0.862;2022-09-09T07:36:17;100025.25;;;16.25;100.00
49457;BME280;35352;51.480;-0.862;2022-09-09T07:38:47;100021.54;;;16.43;100.00
49457;BME280;35352;51.480;-0.862;2022-09-09T07:41:16;100023.22;;;16.27;100.00
49457;BME280;35352;51.480;-0.862;2022-09-09T07:43:45;100027.84;;;16.64;100.00
49457;BME280;35352;51.480;-0.862;2022-09-09T07:46:15;100032.52;;;16.58;100.00
49457;BME280;35352;51.480;-0.862;2022-09-09T07:48:44;100036.90;;;16.58;100.00
49457;BME280;35352;51.480;-0.862;2022-09-09T07:51:15;100040.08;;;16.27;100.00
49457;BME280;35352;51.480;-0.862;2022-09-09T07:53:43;100037.98;;;16.00;100.00
49457;BME280;35352;51.480;-0.862;2022-09-09T07:56:14;100040.55;;;16.10;100.00
49457;BME280;35352;51.480;-0.862;2022-09-09T07:58:45;100041.66;;;16.86;100.00
49457;BME280;35352;51.480;-0.862;2022-09-09T08:01:15;100045.00;;;16.25;100.00
49457;BME280;35352;51.480;-0.862;2022-09-09T08:03:43;100049.38;;;15.48;100.00
49457;BME280;35352;51.480;-0.862;2022-09-09T08:06:11;100056.51;;;15.37;100.00
49457;BME280;35352;51.480;-0.862;2022-09-09T08:08:40;100057.91;;;16.32;100.00
49457;BME280;35352;51.480;-0.862;2022-09-09T08:11:14;100060.15;;;16.51;100.00
49457;BME280;35352;51.480;-0.862;2022-09-09T08:13:43;100063.54;;;16.01;100.00
49457;BME280;35352;51.480;-0.862;2022-09-09T08:16:13;100067.15;;;15.40;100.00
49457;BME280;35352;51.480;-0.862;2022-09-09T08:18:42;100069.87;;;16.12;100.00
49457;BME280;35352;51.480;-0.862;2022-09-09T08:21:15;100076.41;;;16.84;100.00
49457;BME280;35352;51.480;-0.862;2022-09-09T08:23:44;100079.32;;;15.40;100.00
49457;BME280;35352;51.480;-0.862;2022-09-09T08:26:14;100080.85;;;15.26;100.00
49457;BME280;35352;51.480;-0.862;2022-09-09T08:28:43;100086.75;;;15.67;100.00
49457;BME280;35352;51.480;-0.862;2022-09-09T08:31:14;100089.76;;;15.64;100.00
49457;BME280;35352;51.480;-0.862;2022-09-09T08:33:43;100095.02;;;15.25;100.00
49457;BME280;35352;51.480;-0.862;2022-09-09T08:36:12;100091.71;;;15.93;100.00
49457;BME280;35352;51.480;-0.862;2022-09-09T08:38:41;100094.57;;;16.03;100.00
49457;BME280;35352;51.480;-0.862;2022-09-09T08:41:29;100093.52;;;17.06;100.00
49457;BME280;35352;51.480;-0.862;2022-09-09T08:44:09;100098.20;;;16.62;100.00
49457;BME280;35352;51.480;-0.862;2022-09-09T08:46:47;100103.24;;;16.19;100.00
49457;BME280;35352;51.480;-0.862;2022-09-09T08:49:35;100106.63;;;15.83;100.00
49457;BME280;35352;51.480;-0.862;2022-09-09T08:52:16;100112.52;;;16.51;100.00
49457;BME280;35352;51.480;-0.862;2022-09-09T08:54:46;100115.31;;;15.47;100.00
49457;BME280;35352;51.480;-0.862;2022-09-09T08:57:20;100119.44;;;15.54;100.00
49457;BME280;35352;51.480;-0.862;2022-09-09T08:59:50;100128.62;;;15.19;100.00
49457;BME280;35352;51.480;-0.862;2022-09-09T09:02:24;100131.17;;;15.72;100.00
49457;BME280;35352;51.480;-0.862;2022-09-09T09:05:02;100133.93;;;15.35;100.00
49457;BME280;35352;51.480;-0.862;2022-09-09T09:07:45;100141.19;;;16.17;100.00
49457;BME280;35352;51.480;-0.862;2022-09-09T09:11:13;100143.06;;;15.88;100.00
49457;BME280;35352;51.480;-0.862;2022-09-09T09:13:45;100143.64;;;16.45;100.00
49457;BME280;35352;51.480;-0.862;2022-09-09T09:16:22;100142.75;;;16.40;100.00
49457;BME280;35352;51.480;-0.862;2022-09-09T09:18:52;100146.46;;;15.86;100.00
49457;BME280;35352;51.480;-0.862;2022-09-09T09:21:25;100148.98;;;16.18;100.00
49457;BME280;35352;51.480;-0.862;2022-09-09T09:23:58;100149.54;;;15.52;100.00
49457;BME280;35352;51.480;-0.862;2022-09-09T09:26:30;100152.19;;;16.21;100.00
49457;BME280;35352;51.480;-0.862;2022-09-09T09:29:03;100157.24;;;16.28;100.00
49457;BME280;35352;51.480;-0.862;2022-09-09T09:31:38;100158.89;;;16.58;100.00
49457;BME280;35352;51.480;-0.862;2022-09-09T09:34:07;100166.05;;;17.50;100.00
49457;BME280;35352;51.480;-0.862;2022-09-09T09:36:40;100166.14;;;16.39;100.00
49457;BME280;35352;51.480;-0.862;2022-09-09T09:39:09;100170.32;;;16.76;100.00
49457;BME280;35352;51.480;-0.862;2022-09-09T09:41:40;100172.89;;;16.86;100.00
49457;BME280;35352;51.480;-0.862;2022-09-09T09:44:25;100176.38;;;16.55;100.00
49457;BME280;35352;51.480;-0.862;2022-09-09T09:47:05;100178.92;;;16.39;100.00
49457;BME280;35352;51.480;-0.862;2022-09-09T09:49:33;100177.59;;;16.22;100.00
49457;BME280;35352;51.480;-0.862;2022-09-09T09:52:01;100183.59;;;16.09;100.00
49457;BME280;35352;51.480;-0.862;2022-09-09T09:54:30;100184.98;;;16.05;100.00
49457;BME280;35352;51.480;-0.862;2022-09-09T09:57:09;100187.63;;;16.40;100.00
49457;BME280;35352;51.480;-0.862;2022-09-09T09:59:38;100191.92;;;15.63;100.00
49457;BME280;35352;51.480;-0.862;2022-09-09T10:02:15;100193.34;;;17.00;100.00
49457;BME280;35352;51.480;-0.862;2022-09-09T10:04:43;100192.38;;;16.45;100.00
49457;BME280;35352;51.480;-0.862;2022-09-09T10:07:11;100195.57;;;15.87;100.00
49457;BME280;35352;51.480;-0.862;2022-09-09T10:09:38;100195.12;;;15.98;100.00
49457;BME280;35352;51.480;-0.862;2022-09-09T10:12:13;100199.78;;;15.71;100.00
49457;BME280;35352;51.480;-0.862;2022-09-09T10:14:49;100203.02;;;15.71;100.00
49457;BME280;35352;51.480;-0.862;2022-09-09T10:17:30;100201.79;;;16.32;100.00
49457;BME280;35352;51.480;-0.862;2022-09-09T10:21:23;100207.17;;;16.91;100.00
49457;BME280;35352;51.480;-0.862;2022-09-09T10:24:10;100205.06;;;17.52;100.00
49457;BME280;35352;51.480;-0.862;2022-09-09T10:26:50;100213.85;;;16.11;100.00
49457;BME280;35352;51.480;-0.862;2022-09-09T10:29:38;100211.75;;;16.43;100.00
49457;BME280;35352;51.480;-0.862;2022-09-09T10:32:36;100215.67;;;16.44;100.00
49457;BME280;35352;51.480;-0.862;2022-09-09T10:35:12;100216.21;;;15.97;100.00
49457;BME280;35352;51.480;-0.862;2022-09-09T10:37:50;100215.54;;;16.55;100.00
49457;BME280;35352;51.480;-0.862;2022-09-09T10:41:19;100215.40;;;16.63;100.00
49457;BME280;35352;51.480;-0.862;2022-09-09T10:43:59;100219.04;;;16.44;100.00
49457;BME280;35352;51.480;-0.862;2022-09-09T10:46:40;100217.83;;;17.03;100.00
49457;BME280;35352;51.480;-0.862;2022-09-09T10:49:19;100220.13;;;17.64;100.00
49457;BME280;35352;51.480;-0.862;2022-09-09T10:52:00;100224.42;;;16.97;100.00
49457;BME280;35352;51.480;-0.862;2022-09-09T10:54:44;100226.17;;;16.78;100.00
49457;BME280;35352;51.480;-0.862;2022-09-09T10:57:24;100227.02;;;16.58;100.00
49457;BME280;35352;51.480;-0.862;2022-09-09T10:59:55;100228.66;;;16.59;100.00
49457;BME280;35352;51.480;-0.862;2022-09-09T11:02:27;100228.71;;;16.39;100.00
49457;BME280;35352;51.480;-0.862;2022-09-09T11:04:58;100227.72;;;16.83;100.00
49457;BME280;35352;51.480;-0.862;2022-09-09T11:07:34;100224.61;;;16.47;100.00
49457;BME280;35352;51.480;-0.862;2022-09-09T11:11:17;100227.66;;;17.05;100.00
49457;BME280;35352;51.480;-0.862;2022-09-09T11:13:52;100231.20;;;17.52;100.00
49457;BME280;35352;51.480;-0.862;2022-09-09T11:16:27;100232.94;;;17.51;100.00
49457;BME280;35352;51.480;-0.862;2022-09-09T11:19:01;100232.07;;;17.74;100.00
49457;BME280;35352;51.480;-0.862;2022-09-09T11:21:35;100236.01;;;17.44;100.00
49457;BME280;35352;51.480;-0.862;2022-09-09T11:24:12;100238.03;;;17.39;100.00
49457;BME280;35352;51.480;-0.862;2022-09-09T11:26:47;100238.51;;;17.17;100.00
49457;BME280;35352;51.480;-0.862;2022-09-09T11:29:36;100239.86;;;17.35;100.00
49457;BME280;35352;51.480;-0.862;2022-09-09T11:32:20;100239.29;;;17.30;100.00
49457;BME280;35352;51.480;-0.862;2022-09-09T11:35:00;100240.65;;;17.64;100.00
49457;BME280;35352;51.480;-0.862;2022-09-09T11:37:51;100243.43;;;17.50;100.00
49457;BME280;35352;51.480;-0.862;2022-09-09T11:41:14;100244.54;;;18.08;100.00
49457;BME280;35352;51.480;-0.862;2022-09-09T11:43:44;100245.41;;;18.53;100.00
49457;BME280;35352;51.480;-0.862;2022-09-09T11:46:15;100252.14;;;17.48;100.00
49457;BME280;35352;51.480;-0.862;2022-09-09T11:48:45;100246.64;;;17.94;100.00
49457;BME280;35352;51.480;-0.862;2022-09-09T11:51:26;100241.20;;;18.36;100.00
49457;BME280;35352;51.480;-0.862;2022-09-09T11:53:55;100240.98;;;18.74;100.00
49457;BME280;35352;51.480;-0.862;2022-09-09T11:56:26;100240.62;;;18.66;100.00
49457;BME280;35352;51.480;-0.862;2022-09-09T11:58:58;100242.78;;;18.80;100.00
49457;BME280;35352;51.480;-0.862;2022-09-09T12:01:37;100241.75;;;18.62;100.00
49457;BME280;35352;51.480;-0.862;2022-09-09T12:04:30;100245.19;;;18.43;100.00
49457;BME280;35352;51.480;-0.862;2022-09-09T12:07:00;100245.47;;;17.32;100.00
49457;BME280;35352;51.480;-0.862;2022-09-09T12:09:36;100247.00;;;17.81;100.00
49457;BME280;35352;51.480;-0.862;2022-09-09T12:12:24;100247.31;;;18.29;100.00
49457;BME280;35352;51.480;-0.862;2022-09-09T12:12:30;100247.96;;;18.14;100.00
49457;BME280;35352;51.480;-0.862;2022-09-09T12:15:02;100247.40;;;18.44;100.00
49457;BME280;35352;51.480;-0.862;2022-09-09T12:17:31;100250.04;;;18.04;100.00
49457;BME280;35352;51.480;-0.862;2022-09-09T12:20:08;100252.99;;;17.94;100.00
49457;BME280;35352;51.480;-0.862;2022-09-09T12:22:59;100257.06;;;19.28;100.00
49457;BME280;35352;51.480;-0.862;2022-09-09T12:25:36;100255.56;;;18.18;100.00
49457;BME280;35352;51.480;-0.862;2022-09-09T12:28:11;100262.93;;;18.61;100.00
49457;BME280;35352;51.480;-0.862;2022-09-09T12:31:17;100255.43;;;18.03;100.00
49457;BME280;35352;51.480;-0.862;2022-09-09T12:33:49;100255.35;;;18.93;100.00
49457;BME280;35352;51.480;-0.862;2022-09-09T12:36:18;100252.54;;;18.16;100.00
49457;BME280;35352;51.480;-0.862;2022-09-09T12:38:46;100256.30;;;19.30;100.00
49457;BME280;35352;51.480;-0.862;2022-09-09T12:41:21;100256.17;;;18.49;100.00
49457;BME280;35352;51.480;-0.862;2022-09-09T12:43:49;100257.87;;;19.02;100.00
49457;BME280;35352;51.480;-0.862;2022-09-09T12:46:24;100257.69;;;18.53;100.00
49457;BME280;35352;51.480;-0.862;2022-09-09T12:48:56;100257.63;;;18.37;100.00
49457;BME280;35352;51.480;-0.862;2022-09-09T12:51:27;100257.76;;;18.64;100.00
49457;BME280;35352;51.480;-0.862;2022-09-09T12:53:58;100257.91;;;19.36;100.00
49457;BME280;35352;51.480;-0.862;2022-09-09T12:56:28;100258.02;;;19.02;100.00
49457;BME280;35352;51.480;-0.862;2022-09-09T12:59:00;100258.09;;;19.74;100.00
49457;BME280;35352;51.480;-0.862;2022-09-09T13:01:28;100263.30;;;19.38;100.00
49457;BME280;35352;51.480;-0.862;2022-09-09T13:03:56;100259.14;;;19.03;100.00
49457;BME280;35352;51.480;-0.862;2022-09-09T13:06:25;100262.06;;;19.20;100.00
49457;BME280;35352;51.480;-0.862;2022-09-09T13:08:54;100260.41;;;18.59;100.00
49457;BME280;35352;51.480;-0.862;2022-09-09T13:11:26;100264.08;;;17.81;100.00